James Reserve, California Weather observations

Data are for 10 minute period ending at time listed.
 Day   Time   Solar   Ave.   Ave.  Ave.  Vector  Max.   Baro.   Total    
  of    of     Rad.   Air    Rel.  Wind   Wind   Wind  Press.  Precip.   
Year   Day            Temp.  Hum.  Speed  Dir.   Gust                    
2016   (PST)  Kw/m2    F      %     mph   deg.    mph    mb.     in.     
-------------------------------------------------------------------------
 144    6:00   0.02   30.2    70    0.4    43     0.6   833.5    0.00 
 144    6:10   0.04   30.6    71    0.5    45     0.7   833.6    0.00 
 144    6:20   0.05   31.2    69    0.6    51     0.8   833.6    0.00 
 144    6:30   0.04   32.1    68    0.6    49     0.8   833.5    0.00 
 144    6:40   0.09   33.1    66    0.6    52     0.8   833.4    0.00 
 144    6:50   0.07   34.4    66    0.6    48     0.9   833.5    0.00 
 144    7:00   0.16   35.7    68    0.6    50     1.1   833.5    0.00 
 144    7:10   0.43   37.7    68    0.6    51     0.9   833.6    0.00 
 144    7:20   0.51   39.7    68    0.4    49     0.8   833.7    0.00 
 144    7:30   0.55   41.9    69    0.4   149     1.4   833.7    0.00 
 144    7:40   0.59   44.6    63    0.3   141     1.0   833.8    0.00 
 144    7:50   0.63   46.7    56    0.8   221     1.6   833.7    0.00 
 144    8:00   0.68   47.4    55    1.0   220     2.2   833.7    0.00 
 144    8:10   0.71   48.4    56    0.8   195     2.1   833.7    0.00 
 144    8:20   0.74   48.7    55    0.9   153     3.3   833.7    0.00 
 144    8:30   0.78   48.3    62    0.9   179     2.3   833.7    0.00 
 144    8:40   0.81   48.5    70    1.0   208     2.2   833.7    0.00 
 144    8:50   0.84   48.5    67    1.1   226     2.4   833.7    0.00 
 144    9:00   0.88   48.5    67    1.1   205     2.5   833.7    0.00 
 144    9:10   0.91   48.4    71    0.9   206     2.8   833.7    0.00 
 144    9:20   0.94   48.3    71    1.0   164     2.4   833.8    0.00 
 144    9:30   0.96   49.0    68    1.1   234     2.8   833.8    0.00 
 144    9:40   0.98   49.4    70    1.3   209     3.0   833.8    0.00 
 144    9:50   1.00   49.5    72    1.3   233     3.0   834.0    0.00 
 144   10:00   1.02   49.0    74    1.0   186     2.9   834.0    0.00 
 144   10:10   1.03   48.9    74    1.2   227     2.8   834.0    0.00 
 144   10:20   1.05   49.3    74    1.1   219     2.7   834.1    0.00 
 144   10:30   1.06   49.8    73    1.2   232     2.7   834.2    0.00 
 144   10:40   1.09   49.3    73    1.1   175     3.8   834.3    0.00 
 144   10:50   1.12   49.7    72    1.3   164     3.3   834.4    0.00 
 144   11:00   1.12   50.0    72    1.2   197     2.7   834.4    0.00 
 144   11:10   1.11   50.1    70    1.1   155     2.9   834.4    0.00 
 144   11:20   1.10   50.8    69    1.0   209     2.5   834.3    0.00 
 144   11:30   1.09   51.8    66    1.1   224     2.5   834.3    0.00 
 144   11:40   1.09   51.8    65    1.1   227     2.6   834.2    0.00 
 144   11:50   1.10   51.7    65    0.9   214     2.5   834.2    0.00 
 144   12:00   1.10   51.7    65    1.1   215     2.6   834.1    0.00 
 144   12:10   1.09   53.2    62    1.1   222     3.0   834.1    0.00 
 144   12:20   1.08   53.2    60    1.0   218     2.6   834.1    0.00 
 144   12:30   1.08   52.6    61    0.9   152     3.0   834.0    0.00 
 144   12:40   1.08   53.9    58    1.2   164     3.0   834.0    0.00 
 144   12:50   1.06   53.0    59    1.2   198     3.0   834.0    0.00 
 144   13:00   1.04   53.1    59    1.1   237     3.8   833.9    0.00 
 144   13:10   1.02   53.6    58    1.0   123     2.3   833.8    0.00 
 144   13:20   1.00   53.5    58    0.9   230     3.6   833.7    0.00 
 144   13:30   0.98   53.2    59    0.9   204     2.4   833.7    0.00 
 144   13:40   0.95   53.3    59    1.0   197     2.8   833.7    0.00 
 144   13:50   0.94   53.2    58    1.1   156     2.8   833.6    0.00 
 144   14:00   0.79   53.8    57    1.2   124     3.0   833.6    0.00 
 144   14:10   0.12   54.1    56    1.0   200     3.4   833.6    0.00 
 144   14:20   0.09   52.8    57    1.0   199     3.2   833.5    0.00 
 144   14:30   0.08   53.6    54    1.1   224     2.9   833.4    0.00 
 144   14:40   0.09   52.5    56    1.0   178     2.5   833.4    0.00 
 144   14:50   0.14   53.0    55    0.9   201     2.5   833.3    0.00 
 144   15:00   0.10   52.7    53    1.2   134     2.6   833.3    0.00 
 144   15:10   0.08   52.9    53    1.0   172     2.6   833.3    0.00 
 144   15:20   0.18   52.4    54    1.1   231     2.6   833.3    0.00 
 144   15:30   0.06   52.2    52    1.0   189     3.4   833.2    0.00 
 144   15:40   0.05   53.3    54    1.0   162     2.1   833.1    0.00 
 144   15:50   0.12   53.3    55    0.9   174     4.0   833.2    0.00 
 144   16:00   0.18   52.3    59    0.8   228     2.3   833.1    0.00 
 144   16:10   0.07   52.4    61    1.0   211     2.5   833.1    0.00 
 144   16:20   0.05   51.4    64    0.7   162     2.0   833.1    0.00 
 144   16:30   0.06   51.1    68    0.8   186     2.7   833.0    0.00 
 144   16:40   0.06   50.6    69    0.8   212     2.2   832.9    0.00 
 144   16:50   0.09   50.5    71    0.8   319     2.1   832.9    0.00 
 144   17:00   0.10   50.2    72    0.7   214     1.9   832.9    0.00 
 144   17:10   0.09   49.6    74    0.9   221     2.4   832.9    0.00 
 144   17:20   0.07   49.2    77    0.7   142     1.6   832.9    0.00 
 144   17:30   0.05   48.7    78    0.7   209     1.4   832.8    0.00 
 144   17:40   0.03   47.7    81    0.7   178     1.6   832.8    0.00 
 144   17:50   0.01   47.0    84    0.6   230     1.8   832.8    0.00 
 144   18:00   0.01   46.7    85    0.5   212     1.2   832.8    0.00 
 144   18:10   0.01   45.8    88    0.6   197     1.9   832.8    0.00 
 144   18:20   0.01   45.4    89    0.5   225     1.2   832.8    0.00 
 144   18:30   0.01   45.0    90    0.6   230     1.1   832.8    0.00 
 144   18:40   0.00   44.9    90    0.7    65     1.2   832.7    0.00 
 144   18:50   0.00   44.7    90    0.5   109     1.0   832.8    0.00 
 144   19:00   0.00   44.4    90    0.3    56     0.8   832.9    0.00 
 144   19:10   0.00   43.9    91    0.5   253     1.2   832.9    0.00 
 144   19:20   0.00   43.4    92    0.4   334     1.0   833.0    0.00 
 144   19:30   0.00   43.5    93    0.4    10     0.7   833.0    0.00 
 144   19:40   0.00   43.3    93    0.3   299     0.8   833.0    0.00 
 144   19:50   0.00   42.9    93    0.3   346     0.5   833.0    0.00 
 144   20:00   0.00   42.5    93    0.2   347     0.6   833.1    0.00 
 144   20:10   0.00   42.3    92    0.4    55     0.8   833.2    0.00 
 144   20:20   0.00   42.1    92    0.2   346     0.4   833.2    0.00 
 144   20:30   0.00   42.2    92    0.2    96     0.5   833.2    0.00 
 144   20:40   0.00   42.2    91    0.2   297     0.4   833.2    0.00 
 144   20:50   0.00   41.6    92    0.2   281     0.5   833.3    0.00 
 144   21:00   0.00   41.1    92    0.3   284     0.5   833.4    0.00 
 144   21:10   0.00   41.1    93    0.2    22     0.8   833.4    0.00 
 144   21:20   0.00   41.1    93    0.3   246     1.0   833.4    0.00 
 144   21:30   0.00   41.0    93    0.3   248     0.7   833.4    0.00 
 144   21:40   0.00   41.1    93    0.1   302     0.4   833.4    0.00 
 144   21:50   0.00   41.3    93    0.3   206     1.2   833.5    0.00 
 144   22:00   0.00   41.7    93    0.2     8     0.5   833.5    0.00 
 144   22:10   0.00   41.7    93    0.2    20     0.5   833.4    0.00 
 144   22:20   0.00   41.3    93    0.3   110     1.0   833.2    0.00 
 144   22:30   0.00   40.6    93    0.3    90     0.7   833.1    0.00 
 144   22:40   0.00   40.3    93    0.4   279     0.7   833.2    0.00 
 144   22:50   0.00   40.7    94    0.3    13     0.6   833.3    0.00 
 144   23:00   0.00   41.3    94    0.2    12     0.6   833.2    0.00 
 144   23:10   0.00   41.4    95    0.4   246     0.8   833.3    0.00 
 144   23:20   0.00   41.3    96    0.4   174     0.8   833.4    0.00 
 144   23:30   0.00   41.1    96    0.3   180     1.5   833.4    0.00 
 144   23:40   0.00   40.9    97    0.5   186     1.5   833.3    0.00 
 144   23:50   0.00   40.9    97    0.4   233     0.7   833.2    0.00 
 145    0:00   0.00   40.8    97    0.5   180     1.4   833.1    0.00 
 145    0:10   0.00   40.3    97    0.4    65     1.1   833.0    0.00 
 145    0:20   0.00   39.4    97    0.4   101     0.8   832.9    0.00 
 145    0:30   0.00   38.5    96    0.5   352     1.1   832.9    0.00 
 145    0:40   0.00   37.9    96    0.6    35     1.2   832.8    0.00 
 145    0:50   0.00   37.1    96    0.4    11     1.2   832.7    0.00 
 145    1:00   0.00   36.5    96    0.7    17     1.5   832.7    0.00 
 145    1:10   0.00   36.0    96    0.4   304     1.1   832.8    0.00 
 145    1:20   0.00   35.7    96    0.4    23     0.9   832.8    0.00 
 145    1:30   0.00   35.9    97    0.4    86     0.8   832.8    0.00 
 145    1:40   0.00   36.0    96    0.4   154     1.1   832.8    0.00 
 145    1:50   0.00   35.9    96    0.6    53     1.1   832.8    0.00 
 145    2:00   0.00   36.4    96    0.6    68     1.3   832.9    0.00 
 145    2:10   0.00   36.6    95    0.7    76     1.6   832.9    0.00 
 145    2:20   0.00   36.9    95    0.3   191     1.2   832.8    0.00 
 145    2:30   0.00   37.3    95    0.5    36     0.9   832.8    0.00 
 145    2:40   0.00   37.7    95    0.8   144     1.4   832.8    0.00 
 145    2:50   0.00   37.6    95    0.4    13     1.4   832.8    0.00 
 145    3:00   0.00   37.9    96    0.7    60     1.2   832.9    0.00 
 145    3:10   0.00   37.9    96    0.5   121     1.1   832.9    0.00 
 145    3:20   0.00   38.2    95    0.3    97     0.8   832.9    0.00 
 145    3:30   0.00   38.2    94    0.3    98     0.7   833.0    0.00 
 145    3:40   0.00   38.4    93    0.6    51     0.9   832.9    0.00 
 145    3:50   0.00   38.5    92    0.4   234     0.9   832.9    0.00 
 145    4:00   0.00   38.7    91    0.3    58     0.6   832.9    0.00 
 145    4:10   0.00   38.7    90    0.3    54     0.8   832.9    0.00 
 145    4:20   0.00   38.6    90    0.4   350     1.0   833.0    0.00 
 145    4:30   0.00   38.7    90    0.5    47     0.9   833.1    0.00 
 145    4:40   0.00   38.7    90    0.2   229     0.8   833.2    0.00 
 145    4:50   0.00   38.9    89    0.7    54     1.4   833.2    0.00 
 145    5:00   0.00   39.1    88    0.4   145     0.8   833.2    0.00 
 145    5:10   0.01   39.2    88    0.7   222     1.7   833.2    0.00 
 145    5:20   0.01   39.1    90    0.5   235     1.2   833.2    0.00 
 145    5:30   0.03   39.3    91    0.7   222     1.5   833.3    0.00 
 145    5:40   0.05   39.5    92    0.6   238     1.4   833.3    0.00 
 145    5:50   0.09   39.8    91    0.7   200     1.3   833.3    0.00 

Return to James Reserve graphs page.


Western Regional Climate Center,wrcc@dri.edu